sensor_id;sensor_type;location;lat;lon;timestamp;pressure;altitude;pressure_sealevel;temperature;humidity
59053;BME280;44843;44.728;10.396;2023-11-19T00:01:25;101087.09;;;8.80;92.99
59053;BME280;44843;44.728;10.396;2023-11-19T00:03:51;101077.06;;;8.71;94.20
59053;BME280;44843;44.728;10.396;2023-11-19T00:06:16;101077.78;;;8.75;94.51
59053;BME280;44843;44.728;10.396;2023-11-19T00:08:42;101081.03;;;8.80;93.67
59053;BME280;44843;44.728;10.396;2023-11-19T00:11:09;101066.03;;;8.86;93.63
59053;BME280;44843;44.728;10.396;2023-11-19T00:13:34;101064.25;;;8.66;94.40
59053;BME280;44843;44.728;10.396;2023-11-19T00:16:00;101060.81;;;8.66;95.21
59053;BME280;44843;44.728;10.396;2023-11-19T00:18:25;101061.22;;;8.55;96.74
59053;BME280;44843;44.728;10.396;2023-11-19T00:20:50;101075.06;;;8.56;96.84
59053;BME280;44843;44.728;10.396;2023-11-19T00:23:16;101079.47;;;8.54;98.67
59053;BME280;44843;44.728;10.396;2023-11-19T00:25:41;101084.19;;;8.66;96.69
59053;BME280;44843;44.728;10.396;2023-11-19T00:28:07;101087.03;;;8.60;97.65
59053;BME280;44843;44.728;10.396;2023-11-19T00:30:32;101095.31;;;8.70;95.87
59053;BME280;44843;44.728;10.396;2023-11-19T00:32:57;101089.75;;;8.79;94.80
59053;BME280;44843;44.728;10.396;2023-11-19T00:35:23;101097.19;;;8.66;97.44
59053;BME280;44843;44.728;10.396;2023-11-19T00:37:48;101105.28;;;8.58;98.67
59053;BME280;44843;44.728;10.396;2023-11-19T00:40:14;101102.31;;;8.68;98.96
59053;BME280;44843;44.728;10.396;2023-11-19T00:42:41;101086.28;;;8.56;99.69
59053;BME280;44843;44.728;10.396;2023-11-19T00:45:06;101097.94;;;8.46;100.00
59053;BME280;44843;44.728;10.396;2023-11-19T00:47:35;101097.28;;;8.39;100.00
59053;BME280;44843;44.728;10.396;2023-11-19T00:50:04;101087.72;;;8.41;100.00
59053;BME280;44843;44.728;10.396;2023-11-19T00:52:29;101080.53;;;8.48;100.00
59053;BME280;44843;44.728;10.396;2023-11-19T00:54:55;101084.44;;;8.60;100.00
59053;BME280;44843;44.728;10.396;2023-11-19T00:57:20;101080.16;;;8.35;100.00
59053;BME280;44843;44.728;10.396;2023-11-19T00:59:45;101091.44;;;8.34;100.00
59053;BME280;44843;44.728;10.396;2023-11-19T01:02:12;101080.78;;;8.42;100.00
59053;BME280;44843;44.728;10.396;2023-11-19T01:04:39;101085.63;;;8.51;100.00
59053;BME280;44843;44.728;10.396;2023-11-19T01:07:05;101081.16;;;8.55;100.00
59053;BME280;44843;44.728;10.396;2023-11-19T01:09:32;101075.28;;;8.50;100.00
59053;BME280;44843;44.728;10.396;2023-11-19T01:11:58;101078.72;;;8.50;100.00
59053;BME280;44843;44.728;10.396;2023-11-19T01:14:25;101078.69;;;8.52;100.00
59053;BME280;44843;44.728;10.396;2023-11-19T01:16:50;101078.63;;;8.53;98.61
59053;BME280;44843;44.728;10.396;2023-11-19T01:19:16;101076.06;;;8.52;97.28
59053;BME280;44843;44.728;10.396;2023-11-19T01:21:41;101076.03;;;8.53;96.73
59053;BME280;44843;44.728;10.396;2023-11-19T01:24:06;101071.94;;;8.46;96.69
59053;BME280;44843;44.728;10.396;2023-11-19T01:26:34;101073.44;;;8.53;95.56
59053;BME280;44843;44.728;10.396;2023-11-19T01:29:00;101062.66;;;8.40;96.07
59053;BME280;44843;44.728;10.396;2023-11-19T01:31:26;101069.63;;;8.38;96.45
59053;BME280;44843;44.728;10.396;2023-11-19T01:33:51;101066.59;;;8.27;97.56
59053;BME280;44843;44.728;10.396;2023-11-19T01:36:17;101061.41;;;8.27;98.25
59053;BME280;44843;44.728;10.396;2023-11-19T01:38:42;101051.00;;;8.27;98.10
59053;BME280;44843;44.728;10.396;2023-11-19T01:41:07;101054.44;;;8.28;96.16
59053;BME280;44843;44.728;10.396;2023-11-19T01:43:34;101047.56;;;8.27;95.73
59053;BME280;44843;44.728;10.396;2023-11-19T01:46:01;101040.25;;;8.36;94.70
59053;BME280;44843;44.728;10.396;2023-11-19T01:48:29;101027.38;;;8.33;94.38
59053;BME280;44843;44.728;10.396;2023-11-19T01:50:55;101034.56;;;8.27;94.24
59053;BME280;44843;44.728;10.396;2023-11-19T01:53:22;101026.00;;;8.24;94.72
59053;BME280;44843;44.728;10.396;2023-11-19T01:55:48;101029.31;;;8.28;93.76
59053;BME280;44843;44.728;10.396;2023-11-19T01:58:14;101019.66;;;8.32;93.20
59053;BME280;44843;44.728;10.396;2023-11-19T02:00:40;101022.69;;;8.19;95.11
59053;BME280;44843;44.728;10.396;2023-11-19T02:03:07;101012.41;;;7.94;98.30
59053;BME280;44843;44.728;10.396;2023-11-19T02:05:33;101014.66;;;8.03;97.50
59053;BME280;44843;44.728;10.396;2023-11-19T02:08:00;101015.31;;;8.09;97.46
59053;BME280;44843;44.728;10.396;2023-11-19T02:10:26;101009.59;;;8.00;98.43
59053;BME280;44843;44.728;10.396;2023-11-19T02:12:51;101013.19;;;7.96;100.00
59053;BME280;44843;44.728;10.396;2023-11-19T02:15:17;101017.47;;;7.97;99.09
59053;BME280;44843;44.728;10.396;2023-11-19T02:17:44;101018.00;;;8.07;98.51
59053;BME280;44843;44.728;10.396;2023-11-19T02:20:10;101013.59;;;8.09;97.00
59053;BME280;44843;44.728;10.396;2023-11-19T02:22:40;101020.84;;;8.23;95.66
59053;BME280;44843;44.728;10.396;2023-11-19T02:25:07;101007.81;;;8.24;93.64
59053;BME280;44843;44.728;10.396;2023-11-19T02:30:06;100998.13;;;8.28;93.09
59053;BME280;44843;44.728;10.396;2023-11-19T02:32:34;100990.31;;;8.28;92.32
59053;BME280;44843;44.728;10.396;2023-11-19T02:34:59;100977.09;;;8.12;93.76
59053;BME280;44843;44.728;10.396;2023-11-19T02:37:24;100972.88;;;8.10;95.22
59053;BME280;44843;44.728;10.396;2023-11-19T02:39:50;100966.09;;;8.05;94.75
59053;BME280;44843;44.728;10.396;2023-11-19T02:42:16;100968.28;;;8.16;94.75
59053;BME280;44843;44.728;10.396;2023-11-19T02:44:45;100958.31;;;8.05;94.97
59053;BME280;44843;44.728;10.396;2023-11-19T02:47:11;100952.53;;;7.97;96.28
59053;BME280;44843;44.728;10.396;2023-11-19T02:49:36;100949.34;;;7.91;96.65
59053;BME280;44843;44.728;10.396;2023-11-19T02:52:03;100947.28;;;7.77;96.43
59053;BME280;44843;44.728;10.396;2023-11-19T02:54:30;100944.00;;;7.72;96.05
59053;BME280;44843;44.728;10.396;2023-11-19T02:57:00;100941.34;;;7.73;97.01
59053;BME280;44843;44.728;10.396;2023-11-19T02:59:26;100928.53;;;7.92;96.61
59053;BME280;44843;44.728;10.396;2023-11-19T03:01:53;100927.16;;;7.82;96.70
59053;BME280;44843;44.728;10.396;2023-11-19T03:04:19;100931.56;;;7.80;97.04
59053;BME280;44843;44.728;10.396;2023-11-19T03:06:48;100935.66;;;7.87;96.19
59053;BME280;44843;44.728;10.396;2023-11-19T03:09:14;100931.34;;;7.86;95.68
59053;BME280;44843;44.728;10.396;2023-11-19T03:11:39;100933.06;;;7.87;95.35
59053;BME280;44843;44.728;10.396;2023-11-19T03:14:04;100926.59;;;7.74;96.62
59053;BME280;44843;44.728;10.396;2023-11-19T03:16:30;100926.72;;;7.71;96.66
59053;BME280;44843;44.728;10.396;2023-11-19T03:18:55;100922.09;;;7.79;96.86
59053;BME280;44843;44.728;10.396;2023-11-19T03:21:31;100917.22;;;7.93;95.19
59053;BME280;44843;44.728;10.396;2023-11-19T03:23:57;100918.34;;;7.86;94.02
59053;BME280;44843;44.728;10.396;2023-11-19T03:26:26;100913.22;;;7.84;94.55
59053;BME280;44843;44.728;10.396;2023-11-19T03:28:51;100916.56;;;7.88;93.13
59053;BME280;44843;44.728;10.396;2023-11-19T03:31:17;100917.56;;;7.84;92.78
59053;BME280;44843;44.728;10.396;2023-11-19T03:33:42;100918.34;;;7.86;92.29
59053;BME280;44843;44.728;10.396;2023-11-19T03:36:07;100921.38;;;7.75;92.27
59053;BME280;44843;44.728;10.396;2023-11-19T03:38:34;100921.88;;;7.85;91.29
59053;BME280;44843;44.728;10.396;2023-11-19T03:40:59;100920.16;;;7.84;92.09
59053;BME280;44843;44.728;10.396;2023-11-19T03:43:25;100921.63;;;7.91;92.07
59053;BME280;44843;44.728;10.396;2023-11-19T03:45:50;100924.13;;;7.94;91.42
59053;BME280;44843;44.728;10.396;2023-11-19T03:48:15;100924.47;;;8.07;90.55
59053;BME280;44843;44.728;10.396;2023-11-19T03:50:42;100924.53;;;8.05;89.50
59053;BME280;44843;44.728;10.396;2023-11-19T03:53:07;100918.56;;;8.03;89.26
59053;BME280;44843;44.728;10.396;2023-11-19T03:55:32;100923.88;;;8.00;89.65
59053;BME280;44843;44.728;10.396;2023-11-19T03:57:58;100927.88;;;8.09;88.63
59053;BME280;44843;44.728;10.396;2023-11-19T04:00:23;100931.72;;;7.99;88.43
59053;BME280;44843;44.728;10.396;2023-11-19T04:02:49;100934.00;;;8.07;88.62
59053;BME280;44843;44.728;10.396;2023-11-19T04:05:14;100932.69;;;7.96;88.35
59053;BME280;44843;44.728;10.396;2023-11-19T04:07:39;100925.59;;;7.78;89.43
59053;BME280;44843;44.728;10.396;2023-11-19T04:10:05;100923.91;;;7.77;91.35
59053;BME280;44843;44.728;10.396;2023-11-19T04:12:30;100919.56;;;7.77;91.19
59053;BME280;44843;44.728;10.396;2023-11-19T04:14:56;100931.78;;;7.74;91.25
59053;BME280;44843;44.728;10.396;2023-11-19T04:17:21;100931.44;;;7.61;92.18
59053;BME280;44843;44.728;10.396;2023-11-19T04:19:48;100927.53;;;7.73;92.88
59053;BME280;44843;44.728;10.396;2023-11-19T04:22:13;100930.66;;;7.59;92.86
59053;BME280;44843;44.728;10.396;2023-11-19T04:24:39;100925.53;;;7.79;93.56
59053;BME280;44843;44.728;10.396;2023-11-19T04:27:05;100936.84;;;7.78;93.58
59053;BME280;44843;44.728;10.396;2023-11-19T04:29:31;100928.53;;;7.69;94.27
59053;BME280;44843;44.728;10.396;2023-11-19T04:31:57;100926.50;;;7.77;93.24
59053;BME280;44843;44.728;10.396;2023-11-19T04:34:22;100925.53;;;7.79;95.03
59053;BME280;44843;44.728;10.396;2023-11-19T04:36:48;100916.91;;;7.79;95.03
59053;BME280;44843;44.728;10.396;2023-11-19T04:39:14;100918.53;;;7.81;96.12
59053;BME280;44843;44.728;10.396;2023-11-19T04:41:50;100916.22;;;7.74;95.26
59053;BME280;44843;44.728;10.396;2023-11-19T04:44:19;100920.56;;;7.73;95.42
59053;BME280;44843;44.728;10.396;2023-11-19T04:46:44;100927.06;;;7.85;95.53
59053;BME280;44843;44.728;10.396;2023-11-19T04:49:11;100925.19;;;7.89;95.75
59053;BME280;44843;44.728;10.396;2023-11-19T04:51:44;100921.31;;;7.77;95.96
59053;BME280;44843;44.728;10.396;2023-11-19T04:54:12;100917.94;;;7.75;96.31
59053;BME280;44843;44.728;10.396;2023-11-19T04:56:37;100915.56;;;7.69;96.59
59053;BME280;44843;44.728;10.396;2023-11-19T04:59:04;100897.53;;;7.66;95.94
59053;BME280;44843;44.728;10.396;2023-11-19T05:01:33;100892.31;;;7.66;95.50
59053;BME280;44843;44.728;10.396;2023-11-19T05:03:59;100890.41;;;7.71;94.98
59053;BME280;44843;44.728;10.396;2023-11-19T05:06:28;100900.31;;;7.83;95.05
59053;BME280;44843;44.728;10.396;2023-11-19T05:08:55;100893.41;;;7.82;94.18
59053;BME280;44843;44.728;10.396;2023-11-19T05:11:20;100898.59;;;7.82;93.87
59053;BME280;44843;44.728;10.396;2023-11-19T05:13:46;100886.97;;;7.92;92.52
59053;BME280;44843;44.728;10.396;2023-11-19T05:16:12;100879.22;;;7.91;92.25
59053;BME280;44843;44.728;10.396;2023-11-19T05:18:40;100870.84;;;7.84;91.59
59053;BME280;44843;44.728;10.396;2023-11-19T05:21:06;100873.75;;;7.76;92.44
59053;BME280;44843;44.728;10.396;2023-11-19T05:23:34;100874.03;;;7.69;92.76
59053;BME280;44843;44.728;10.396;2023-11-19T05:26:03;100865.00;;;7.79;93.22
59053;BME280;44843;44.728;10.396;2023-11-19T05:28:28;100859.09;;;7.74;93.08
59053;BME280;44843;44.728;10.396;2023-11-19T05:30:54;100849.81;;;7.68;93.98
59053;BME280;44843;44.728;10.396;2023-11-19T05:33:20;100855.25;;;7.62;94.68
59053;BME280;44843;44.728;10.396;2023-11-19T05:35:46;100855.84;;;7.47;94.49
59053;BME280;44843;44.728;10.396;2023-11-19T05:38:11;100856.81;;;7.44;95.38
59053;BME280;44843;44.728;10.396;2023-11-19T05:40:36;100863.22;;;7.57;93.75
59053;BME280;44843;44.728;10.396;2023-11-19T05:43:04;100857.19;;;7.57;93.35
59053;BME280;44843;44.728;10.396;2023-11-19T05:45:29;100860.66;;;7.56;92.29
59053;BME280;44843;44.728;10.396;2023-11-19T05:47:54;100862.28;;;7.58;92.70
59053;BME280;44843;44.728;10.396;2023-11-19T05:50:20;100849.91;;;7.43;93.88
59053;BME280;44843;44.728;10.396;2023-11-19T05:52:46;100857.41;;;7.51;93.27
59053;BME280;44843;44.728;10.396;2023-11-19T05:55:11;100847.50;;;7.60;92.97
59053;BME280;44843;44.728;10.396;2023-11-19T05:57:38;100845.31;;;7.50;93.99
59053;BME280;44843;44.728;10.396;2023-11-19T06:00:05;100840.22;;;7.48;94.87
59053;BME280;44843;44.728;10.396;2023-11-19T06:02:32;100843.41;;;7.55;95.61
59053;BME280;44843;44.728;10.396;2023-11-19T06:04:58;100837.50;;;7.51;96.61
59053;BME280;44843;44.728;10.396;2023-11-19T06:07:23;100839.44;;;7.46;96.74
59053;BME280;44843;44.728;10.396;2023-11-19T06:09:49;100820.69;;;7.38;99.16
59053;BME280;44843;44.728;10.396;2023-11-19T06:12:14;100828.94;;;7.26;100.00
59053;BME280;44843;44.728;10.396;2023-11-19T06:14:40;100832.09;;;7.34;100.00
59053;BME280;44843;44.728;10.396;2023-11-19T06:17:05;100839.13;;;7.30;100.00
59053;BME280;44843;44.728;10.396;2023-11-19T06:19:31;100840.78;;;7.33;100.00
59053;BME280;44843;44.728;10.396;2023-11-19T06:21:56;100840.28;;;7.23;100.00
59053;BME280;44843;44.728;10.396;2023-11-19T06:24:21;100847.97;;;7.26;100.00
59053;BME280;44843;44.728;10.396;2023-11-19T06:26:47;100845.47;;;7.23;100.00
59053;BME280;44843;44.728;10.396;2023-11-19T06:29:13;100850.59;;;7.25;100.00
59053;BME280;44843;44.728;10.396;2023-11-19T06:31:43;100865.16;;;7.52;99.28
59053;BME280;44843;44.728;10.396;2023-11-19T06:34:08;100859.28;;;7.69;96.12
59053;BME280;44843;44.728;10.396;2023-11-19T06:36:34;100856.88;;;7.64;95.50
59053;BME280;44843;44.728;10.396;2023-11-19T06:39:00;100854.66;;;7.77;96.92
59053;BME280;44843;44.728;10.396;2023-11-19T06:41:26;100842.03;;;7.90;96.14
59053;BME280;44843;44.728;10.396;2023-11-19T06:43:52;100849.50;;;7.98;94.68
59053;BME280;44843;44.728;10.396;2023-11-19T06:46:17;100852.09;;;7.98;94.27
59053;BME280;44843;44.728;10.396;2023-11-19T06:48:44;100857.38;;;7.96;96.57
59053;BME280;44843;44.728;10.396;2023-11-19T06:51:10;100856.69;;;7.91;98.06
59053;BME280;44843;44.728;10.396;2023-11-19T06:53:35;100857.31;;;7.76;100.00
59053;BME280;44843;44.728;10.396;2023-11-19T06:56:01;100866.06;;;7.73;100.00
59053;BME280;44843;44.728;10.396;2023-11-19T06:58:29;100861.41;;;7.59;100.00
59053;BME280;44843;44.728;10.396;2023-11-19T07:00:54;100852.97;;;7.76;99.95
59053;BME280;44843;44.728;10.396;2023-11-19T07:03:19;100852.09;;;7.76;100.00
59053;BME280;44843;44.728;10.396;2023-11-19T07:05:46;100861.06;;;7.91;99.22
59053;BME280;44843;44.728;10.396;2023-11-19T07:08:11;100863.97;;;8.05;98.32
59053;BME280;44843;44.728;10.396;2023-11-19T07:10:37;100870.00;;;8.05;97.05
59053;BME280;44843;44.728;10.396;2023-11-19T07:13:02;100867.81;;;8.17;95.05
59053;BME280;44843;44.728;10.396;2023-11-19T07:15:28;100867.69;;;8.20;94.24
59053;BME280;44843;44.728;10.396;2023-11-19T07:17:53;100877.16;;;8.21;95.93
59053;BME280;44843;44.728;10.396;2023-11-19T07:20:19;100883.16;;;8.23;96.41
59053;BME280;44843;44.728;10.396;2023-11-19T07:22:45;100875.75;;;8.34;96.07
59053;BME280;44843;44.728;10.396;2023-11-19T07:25:12;100872.16;;;8.16;97.25
59053;BME280;44843;44.728;10.396;2023-11-19T07:27:38;100885.88;;;8.20;97.16
59053;BME280;44843;44.728;10.396;2023-11-19T07:30:05;100892.06;;;8.38;96.21
59053;BME280;44843;44.728;10.396;2023-11-19T07:32:32;100895.09;;;8.49;95.08
59053;BME280;44843;44.728;10.396;2023-11-19T07:34:57;100898.53;;;8.70;93.95
59053;BME280;44843;44.728;10.396;2023-11-19T07:37:23;100905.31;;;8.74;95.26
59053;BME280;44843;44.728;10.396;2023-11-19T07:39:48;100903.69;;;8.72;94.62
59053;BME280;44843;44.728;10.396;2023-11-19T07:42:23;100899.91;;;8.79;92.07
59053;BME280;44843;44.728;10.396;2023-11-19T07:44:52;100897.06;;;8.85;91.86
59053;BME280;44843;44.728;10.396;2023-11-19T07:47:20;100895.56;;;9.00;93.13
59053;BME280;44843;44.728;10.396;2023-11-19T07:49:47;100890.50;;;8.97;95.12
59053;BME280;44843;44.728;10.396;2023-11-19T07:52:13;100889.50;;;8.99;91.33
59053;BME280;44843;44.728;10.396;2023-11-19T07:54:38;100896.28;;;9.03;90.59
59053;BME280;44843;44.728;10.396;2023-11-19T07:57:04;100898.97;;;9.21;90.13
59053;BME280;44843;44.728;10.396;2023-11-19T07:59:29;100902.28;;;9.43;87.56
59053;BME280;44843;44.728;10.396;2023-11-19T08:01:54;100907.16;;;9.51;88.05
59053;BME280;44843;44.728;10.396;2023-11-19T08:04:20;100907.91;;;9.53;89.23
59053;BME280;44843;44.728;10.396;2023-11-19T08:06:45;100906.88;;;9.57;90.44
59053;BME280;44843;44.728;10.396;2023-11-19T08:09:11;100908.69;;;9.55;92.66
59053;BME280;44843;44.728;10.396;2023-11-19T08:11:40;100906.66;;;9.62;94.88
59053;BME280;44843;44.728;10.396;2023-11-19T08:14:05;100913.06;;;9.55;96.15
59053;BME280;44843;44.728;10.396;2023-11-19T08:16:31;100909.69;;;9.53;96.26
59053;BME280;44843;44.728;10.396;2023-11-19T08:18:56;100908.16;;;9.67;96.27
59053;BME280;44843;44.728;10.396;2023-11-19T08:21:23;100919.13;;;9.74;94.31
59053;BME280;44843;44.728;10.396;2023-11-19T08:23:48;100915.47;;;9.78;86.77
59053;BME280;44843;44.728;10.396;2023-11-19T08:26:15;100907.81;;;9.75;85.04
59053;BME280;44843;44.728;10.396;2023-11-19T08:28:40;100906.44;;;9.85;84.18
59053;BME280;44843;44.728;10.396;2023-11-19T08:31:06;100913.25;;;9.88;81.83
59053;BME280;44843;44.728;10.396;2023-11-19T08:33:32;100914.69;;;9.95;82.63
59053;BME280;44843;44.728;10.396;2023-11-19T08:35:57;100916.22;;;9.99;85.25
59053;BME280;44843;44.728;10.396;2023-11-19T08:38:24;100913.94;;;10.10;85.65
59053;BME280;44843;44.728;10.396;2023-11-19T08:40:49;100918.09;;;10.15;86.12
59053;BME280;44843;44.728;10.396;2023-11-19T08:43:14;100906.59;;;10.19;87.43
59053;BME280;44843;44.728;10.396;2023-11-19T08:45:41;100910.06;;;10.19;87.49
59053;BME280;44843;44.728;10.396;2023-11-19T08:48:06;100907.22;;;10.24;84.88
59053;BME280;44843;44.728;10.396;2023-11-19T08:50:33;100900.75;;;10.14;85.71
59053;BME280;44843;44.728;10.396;2023-11-19T08:52:58;100888.75;;;10.28;85.58
59053;BME280;44843;44.728;10.396;2023-11-19T08:55:24;100902.34;;;10.35;85.86
59053;BME280;44843;44.728;10.396;2023-11-19T08:57:49;100895.31;;;10.37;84.18
59053;BME280;44843;44.728;10.396;2023-11-19T09:00:14;100893.53;;;10.38;81.13
59053;BME280;44843;44.728;10.396;2023-11-19T09:02:40;100895.63;;;10.48;82.38
59053;BME280;44843;44.728;10.396;2023-11-19T09:05:06;100894.31;;;10.40;84.22
59053;BME280;44843;44.728;10.396;2023-11-19T09:07:32;100900.13;;;10.45;83.61
59053;BME280;44843;44.728;10.396;2023-11-19T09:09:58;100910.50;;;10.46;81.60
59053;BME280;44843;44.728;10.396;2023-11-19T09:12:23;100919.16;;;10.47;88.65
59053;BME280;44843;44.728;10.396;2023-11-19T09:14:49;100919.84;;;10.50;88.15
59053;BME280;44843;44.728;10.396;2023-11-19T09:17:14;100922.69;;;10.63;85.99
59053;BME280;44843;44.728;10.396;2023-11-19T09:19:40;100916.31;;;10.69;85.54
59053;BME280;44843;44.728;10.396;2023-11-19T09:22:05;100924.38;;;10.82;84.30
59053;BME280;44843;44.728;10.396;2023-11-19T09:24:31;100918.63;;;10.75;83.36
59053;BME280;44843;44.728;10.396;2023-11-19T09:26:56;100930.34;;;11.01;81.43
59053;BME280;44843;44.728;10.396;2023-11-19T09:29:22;100920.22;;;10.95;82.02
59053;BME280;44843;44.728;10.396;2023-11-19T09:31:49;100918.47;;;10.78;83.25
59053;BME280;44843;44.728;10.396;2023-11-19T09:34:14;100919.00;;;10.85;84.90
59053;BME280;44843;44.728;10.396;2023-11-19T09:36:39;100921.88;;;10.80;85.23
59053;BME280;44843;44.728;10.396;2023-11-19T09:39:09;100921.47;;;10.88;85.60
59053;BME280;44843;44.728;10.396;2023-11-19T09:41:35;100921.94;;;10.79;85.29
59053;BME280;44843;44.728;10.396;2023-11-19T09:44:00;100916.53;;;10.82;84.83
59053;BME280;44843;44.728;10.396;2023-11-19T09:46:26;100920.03;;;10.82;86.38
59053;BME280;44843;44.728;10.396;2023-11-19T09:48:53;100910.94;;;10.89;87.35
59053;BME280;44843;44.728;10.396;2023-11-19T09:51:20;100914.31;;;10.91;88.07
59053;BME280;44843;44.728;10.396;2023-11-19T09:53:45;100919.22;;;10.98;87.43
59053;BME280;44843;44.728;10.396;2023-11-19T09:56:12;100906.63;;;10.88;87.59
59053;BME280;44843;44.728;10.396;2023-11-19T09:58:37;100915.47;;;10.86;84.33
59053;BME280;44843;44.728;10.396;2023-11-19T10:01:03;100913.38;;;10.92;83.39
59053;BME280;44843;44.728;10.396;2023-11-19T10:03:35;100903.03;;;10.91;84.81
59053;BME280;44843;44.728;10.396;2023-11-19T10:06:03;100906.50;;;10.91;86.53
59053;BME280;44843;44.728;10.396;2023-11-19T10:08:29;100908.78;;;10.98;87.34
59053;BME280;44843;44.728;10.396;2023-11-19T10:10:55;100915.84;;;10.96;87.87
59053;BME280;44843;44.728;10.396;2023-11-19T10:13:26;100915.00;;;10.95;88.66
59053;BME280;44843;44.728;10.396;2023-11-19T10:15:52;100898.88;;;11.04;89.31
59053;BME280;44843;44.728;10.396;2023-11-19T10:18:18;100898.19;;;11.01;88.71
59053;BME280;44843;44.728;10.396;2023-11-19T10:20:43;100901.91;;;11.12;88.46
59053;BME280;44843;44.728;10.396;2023-11-19T10:23:10;100901.84;;;11.14;88.69
59053;BME280;44843;44.728;10.396;2023-11-19T10:25:36;100900.16;;;11.13;88.31
59053;BME280;44843;44.728;10.396;2023-11-19T10:28:01;100896.91;;;11.25;86.01
59053;BME280;44843;44.728;10.396;2023-11-19T10:30:29;100895.56;;;11.34;82.73
59053;BME280;44843;44.728;10.396;2023-11-19T10:35:35;100888.03;;;11.61;79.88
59053;BME280;44843;44.728;10.396;2023-11-19T10:38:13;100885.25;;;11.64;79.55
59053;BME280;44843;44.728;10.396;2023-11-19T10:40:39;100879.59;;;11.72;79.20
59053;BME280;44843;44.728;10.396;2023-11-19T10:43:05;100880.25;;;11.75;79.12
59053;BME280;44843;44.728;10.396;2023-11-19T10:45:33;100872.00;;;11.67;82.44
59053;BME280;44843;44.728;10.396;2023-11-19T10:47:59;100876.56;;;11.64;83.49
59053;BME280;44843;44.728;10.396;2023-11-19T10:50:26;100876.81;;;11.59;85.02
59053;BME280;44843;44.728;10.396;2023-11-19T10:52:56;100867.28;;;11.58;84.93
59053;BME280;44843;44.728;10.396;2023-11-19T10:55:28;100855.91;;;11.59;84.85
59053;BME280;44843;44.728;10.396;2023-11-19T10:57:59;100847.97;;;11.61;84.53
59053;BME280;44843;44.728;10.396;2023-11-19T11:00:25;100851.09;;;11.67;85.62
59053;BME280;44843;44.728;10.396;2023-11-19T11:02:55;100849.25;;;11.69;85.13
59053;BME280;44843;44.728;10.396;2023-11-19T11:05:22;100842.28;;;11.70;85.11
59053;BME280;44843;44.728;10.396;2023-11-19T11:07:49;100827.16;;;11.75;85.32
59053;BME280;44843;44.728;10.396;2023-11-19T11:10:18;100829.44;;;11.81;86.43
59053;BME280;44843;44.728;10.396;2023-11-19T11:12:47;100819.66;;;11.85;87.47
59053;BME280;44843;44.728;10.396;2023-11-19T11:15:17;100809.94;;;11.87;87.81
59053;BME280;44843;44.728;10.396;2023-11-19T11:17:44;100815.28;;;11.85;86.85
59053;BME280;44843;44.728;10.396;2023-11-19T11:20:10;100823.28;;;11.98;86.45
59053;BME280;44843;44.728;10.396;2023-11-19T11:23:02;100827.00;;;11.94;87.79
59053;BME280;44843;44.728;10.396;2023-11-19T11:25:49;100816.03;;;12.03;88.07
59053;BME280;44843;44.728;10.396;2023-11-19T11:31:36;100811.44;;;12.07;85.05
59053;BME280;44843;44.728;10.396;2023-11-19T11:34:26;100811.03;;;12.14;84.48
59053;BME280;44843;44.728;10.396;2023-11-19T11:39:34;100797.13;;;12.14;84.78
59053;BME280;44843;44.728;10.396;2023-11-19T11:50:08;100766.81;;;12.54;86.39
59053;BME280;44843;44.728;10.396;2023-11-19T11:52:34;100768.16;;;12.62;88.35
59053;BME280;44843;44.728;10.396;2023-11-19T11:55:26;100760.94;;;12.65;86.04
59053;BME280;44843;44.728;10.396;2023-11-19T11:57:53;100758.69;;;12.73;84.83
59053;BME280;44843;44.728;10.396;2023-11-19T12:00:38;100759.25;;;12.78;83.58
59053;BME280;44843;44.728;10.396;2023-11-19T12:03:06;100748.88;;;12.77;83.46
59053;BME280;44843;44.728;10.396;2023-11-19T12:05:32;100747.19;;;12.76;84.20
59053;BME280;44843;44.728;10.396;2023-11-19T12:08:04;100743.75;;;12.75;83.59
59053;BME280;44843;44.728;10.396;2023-11-19T12:10:36;100751.88;;;12.71;83.54
59053;BME280;44843;44.728;10.396;2023-11-19T12:13:04;100745.97;;;12.67;82.54
59053;BME280;44843;44.728;10.396;2023-11-19T12:15:32;100741.78;;;12.65;82.39
59053;BME280;44843;44.728;10.396;2023-11-19T12:17:57;100744.41;;;12.65;82.99
59053;BME280;44843;44.728;10.396;2023-11-19T12:20:24;100733.84;;;12.66;81.71
59053;BME280;44843;44.728;10.396;2023-11-19T12:22:50;100735.72;;;12.64;81.30
59053;BME280;44843;44.728;10.396;2023-11-19T12:25:17;100747.75;;;12.67;81.93
59053;BME280;44843;44.728;10.396;2023-11-19T12:27:47;100735.59;;;12.66;82.55
59053;BME280;44843;44.728;10.396;2023-11-19T12:30:21;100725.13;;;12.66;82.85
59053;BME280;44843;44.728;10.396;2023-11-19T12:32:47;100726.84;;;12.67;83.32
59053;BME280;44843;44.728;10.396;2023-11-19T12:35:13;100727.75;;;12.80;81.99
59053;BME280;44843;44.728;10.396;2023-11-19T12:37:42;100714.66;;;12.80;82.13
59053;BME280;44843;44.728;10.396;2023-11-19T12:40:16;100723.34;;;12.81;83.54
59053;BME280;44843;44.728;10.396;2023-11-19T12:42:45;100717.09;;;12.83;82.58
59053;BME280;44843;44.728;10.396;2023-11-19T12:45:10;100718.69;;;12.86;84.87
59053;BME280;44843;44.728;10.396;2023-11-19T12:47:36;100708.31;;;12.84;89.24
59053;BME280;44843;44.728;10.396;2023-11-19T12:50:02;100702.13;;;12.85;89.88
59053;BME280;44843;44.728;10.396;2023-11-19T12:52:29;100707.19;;;12.88;93.75
59053;BME280;44843;44.728;10.396;2023-11-19T12:54:54;100699.50;;;12.85;95.44
59053;BME280;44843;44.728;10.396;2023-11-19T12:57:20;100698.69;;;12.85;97.99
59053;BME280;44843;44.728;10.396;2023-11-19T12:59:55;100697.75;;;12.86;99.69
59053;BME280;44843;44.728;10.396;2023-11-19T13:02:46;100697.91;;;12.97;100.00